עמוד ראשי
METAR-TAF:

METAR-TAF

שדות תעופה :

Campbeltown, סקוטלנד

קו רוחב: 55-26-14N, קו אורך: 005-41-11W, גובה: 13מטר

תצפית מזג אוויר נוכחית

הדו"ח נערך לפני 13דקות, בשעה 11:20 UTC
רוח 9קשר מכיוון מערב
טמפרטורת 13 צלסיוס
לחות 72%
לחץ 1023 hPa
ראות 10 קילומטר או יותר
מעט עננים בגובה 3500רגל

METAR: EGEC 191120Z 28009KT 9999 FEW035 13/08 Q1023

זמן: 12:33 (11:33 UTC)

תחזית

הדו"ח נערך לפני 3 שעות ו 34דקות, בשעה 07:59 UTC
תחזית בתוקף מ 19 ב 09 UTC עד 19 ב 17 UTC
רוח 7קשר מכיוון מערב/צפון-מערב
ראות 10 קילומטר או יותר
מעט עננים בגובה 2500רגל

TAF: EGEC 190759Z 1909/1917 30007KT 9999 FEW025

תצפיות ותחזיות מזג אוויר לגבי יותר מ- 4,000 שדות תעופה ברחבי העולם. דוחות METAR ו- TAF.

התחנות הזמינות מסומנות בנקודות צהובות ואדומות על גבי המפה.

העבר את העכבר לנקודה הצבעונית על מנת לראות את שם התחנה.

לאחר מכן, לחץ כדי לראות את תוכן ואת תחזיות מזג האוויר.

כדי לשנות את המפה: לחץ על הכפתורים הירוקים עם הפלוס השחור כדי להתקרב; על הכפתור הירוק עם המקף כדי להתרחק; או בחיצים הירוקים למפות סמוכות.


METAR-TAF: